Time;durP1;ratioP1;P1;durP2;ratioP2;P2;SDS_P1;SDS_P2;PMS_P1;PMS_P2;Temp;Humidity;BMP_temperature;BMP_pressure;BME280_temperature;BME280_humidity;BME280_pressure;Samples;Min_cycle;Max_cycle;Signal;HPM_P1;HPM_P2
2021/12/22 00:03:53;;;;;;;;;;;;;;;21.06;28.01;96288.38;10409884;28;1853;-73
2021/12/22 00:08:53;;;;;;;;;;;;;;;21.06;27.98;96285.75;10378797;28;1758;-73
2021/12/22 00:13:54;;;;;;;;;;;;;;;21.06;28.02;96287.63;10397514;28;1879;-73
2021/12/22 00:18:54;;;;;;;;;;;;;;;21.06;27.75;96291.00;10381295;28;2252;-73
2021/12/22 00:23:55;;;;;;;;;;;;;;;21.06;27.78;96290.25;10406657;28;2450;-73
2021/12/22 00:28:55;;;;;;;;;;;;;;;21.10;27.86;96287.88;10403219;28;1978;-73
2021/12/22 00:33:57;;;;;;;;;;;;;;;21.08;27.86;96289.97;10425781;23;2725;-47
2021/12/22 00:38:58;;;;;;;;;;;;;;;21.04;27.68;96285.22;10463576;28;1914;-48
2021/12/22 00:43:58;;;;;;;;;;;;;;;21.03;27.62;96290.75;10466482;28;1857;-50
2021/12/22 00:48:58;;;;;;;;;;;;;;;21.00;27.87;96288.59;10481405;28;1815;-47
2021/12/22 00:53:59;;;;;;;;;;;;;;;21.01;27.54;96288.38;10481810;28;1765;-48
2021/12/22 00:58:59;;;;;;;;;;;;;;;21.03;27.57;96290.75;10492910;28;2045;-51
2021/12/22 01:03:59;;;;;;;;;;;;;;;21.01;27.52;96295.47;10486411;28;1754;-50
2021/12/22 01:09:00;;;;;;;;;;;;;;;20.99;27.45;96301.00;10480667;28;1771;-49
2021/12/22 01:14:02;;;;;;;;;;;;;;;21.00;27.40;96305.22;10483243;28;1825;-47
2021/12/22 01:19:06;;;;;;;;;;;;;;;21.00;27.28;96310.50;10482431;28;1914;-48
2021/12/22 01:24:15;;;;;;;;;;;;;;;20.98;27.29;96312.59;10492472;28;1723;-50
2021/12/22 01:29:16;;;;;;;;;;;;;;;20.98;27.19;96323.13;10465687;28;1852;-47
2021/12/22 01:34:16;;;;;;;;;;;;;;;20.98;27.32;96315.22;10478211;28;1845;-46
2021/12/22 01:39:16;;;;;;;;;;;;;;;20.96;27.18;96325.25;10478072;28;1983;-48
2021/12/22 01:44:28;;;;;;;;;;;;;;;20.96;27.30;96322.59;10486401;28;1949;-49
2021/12/22 01:49:38;;;;;;;;;;;;;;;20.96;27.40;96319.97;10477235;28;1880;-48
2021/12/22 01:54:40;;;;;;;;;;;;;;;21.00;26.99;96314.97;10483933;28;1800;-51
2021/12/22 01:59:41;;;;;;;;;;;;;;;20.99;26.96;96311.56;10460329;28;1953;-47
2021/12/22 02:04:42;;;;;;;;;;;;;;;20.97;27.11;96305.75;10475001;28;1864;-49
2021/12/22 02:15:02;;;;;;;;;;;;;;;20.96;26.98;96319.97;10459960;28;2185;-48
2021/12/22 02:20:03;;;;;;;;;;;;;;;20.96;27.04;96301.53;10467550;28;1980;-53
2021/12/22 02:25:12;;;;;;;;;;;;;;;20.93;27.08;96304.69;10463016;28;2332;-46
2021/12/22 02:30:22;;;;;;;;;;;;;;;20.96;26.79;96301.53;10478451;28;1876;-47
2021/12/22 02:40:56;;;;;;;;;;;;;;;20.94;26.93;96314.19;10441891;28;1984;-53
2021/12/22 02:45:57;;;;;;;;;;;;;;;20.95;26.58;96321.03;10500443;23;3628;-64
2021/12/22 02:50:59;;;;;;;;;;;;;;;20.96;26.54;96317.34;10418456;28;2086;-64
2021/12/22 02:56:02;;;;;;;;;;;;;;;20.96;26.66;96322.59;10416613;28;1965;-63
2021/12/22 03:01:24;;;;;;;;;;;;;;;20.96;26.69;96325.25;10407227;28;1970;-61
2021/12/22 03:06:41;;;;;;;;;;;;;;;20.94;26.41;96308.91;10413028;28;1835;-63
2021/12/22 03:11:43;;;;;;;;;;;;;;;20.91;26.57;96308.66;10406376;28;1974;-65
2021/12/22 03:16:44;;;;;;;;;;;;;;;20.92;26.51;96313.66;10410433;28;1936;-65
2021/12/22 03:21:46;;;;;;;;;;;;;;;20.93;26.65;96317.88;10410797;28;2238;-65
2021/12/22 03:26:48;;;;;;;;;;;;;;;20.94;26.47;96326.56;10408842;28;1929;-65
2021/12/22 03:31:48;;;;;;;;;;;;;;;20.91;26.66;96322.63;10404199;28;1978;-63
2021/12/22 03:36:49;;;;;;;;;;;;;;;20.93;26.35;96325.78;10411671;28;1979;-63
2021/12/22 03:41:49;;;;;;;;;;;;;;;20.92;26.32;96311.00;10400071;28;1987;-62
2021/12/22 03:46:51;;;;;;;;;;;;;;;20.94;26.25;96318.66;10410474;28;1975;-63
2021/12/22 03:51:51;;;;;;;;;;;;;;;20.91;26.39;96316.56;10409692;28;1934;-63
2021/12/22 03:56:52;;;;;;;;;;;;;;;20.90;26.48;96317.59;10412103;28;1996;-61
2021/12/22 04:01:52;;;;;;;;;;;;;;;20.90;26.22;96321.03;10404476;28;1973;-63
2021/12/22 04:06:53;;;;;;;;;;;;;;;20.92;26.15;96316.28;10409180;28;2075;-63
2021/12/22 04:11:53;;;;;;;;;;;;;;;20.92;26.28;96332.09;10400385;28;1968;-65
2021/12/22 04:16:54;;;;;;;;;;;;;;;20.86;26.58;96333.13;10401164;28;2016;-60
2021/12/22 04:21:54;;;;;;;;;;;;;;;20.87;26.41;96333.94;10406111;28;2071;-64
2021/12/22 04:26:55;;;;;;;;;;;;;;;20.86;26.37;96343.69;10409860;28;1969;-62
2021/12/22 04:31:55;;;;;;;;;;;;;;;20.86;26.34;96343.69;10400117;28;1981;-64
2021/12/22 04:36:55;;;;;;;;;;;;;;;20.88;26.16;96348.69;10407345;28;1981;-63
2021/12/22 04:41:56;;;;;;;;;;;;;;;20.86;26.18;96348.94;10398484;28;2021;-63
2021/12/22 04:46:58;;;;;;;;;;;;;;;20.87;26.10;96339.22;10409335;28;1984;-65
2021/12/22 04:52:00;;;;;;;;;;;;;;;20.86;26.17;96342.88;10406876;28;2138;-62
2021/12/22 04:57:01;;;;;;;;;;;;;;;20.84;26.13;96340.50;10406195;28;1943;-62
2021/12/22 05:02:01;;;;;;;;;;;;;;;20.84;26.43;96347.63;10399259;28;1915;-60
2021/12/22 05:07:02;;;;;;;;;;;;;;;20.84;26.32;96348.41;10411369;28;1927;-62
2021/12/22 05:12:02;;;;;;;;;;;;;;;20.85;26.14;96352.66;10396519;28;1882;-63
2021/12/22 05:17:05;;;;;;;;;;;;;;;20.82;26.08;96347.88;10411261;28;1996;-62
2021/12/22 05:22:06;;;;;;;;;;;;;;;20.82;26.14;96347.88;10402407;28;1888;-60
2021/12/22 05:27:11;;;;;;;;;;;;;;;20.81;26.18;96335.75;10395298;28;3258;-63
2021/12/22 05:32:12;;;;;;;;;;;;;;;20.83;26.00;96343.41;10401967;28;1903;-66
2021/12/22 05:37:12;;;;;;;;;;;;;;;20.80;26.15;96346.56;10406782;28;1910;-63
2021/12/22 05:42:13;;;;;;;;;;;;;;;20.80;26.09;96342.09;10400385;28;2294;-60
2021/12/22 05:47:13;;;;;;;;;;;;;;;20.82;25.80;96334.72;10409908;28;1857;-61
2021/12/22 05:52:14;;;;;;;;;;;;;;;20.81;26.08;96342.88;10396249;28;2139;-61
2021/12/22 05:57:14;;;;;;;;;;;;;;;20.82;25.98;96342.63;10398555;28;2026;-62
2021/12/22 06:02:14;;;;;;;;;;;;;;;20.80;25.91;96342.09;10399892;28;2232;-64
2021/12/22 06:07:15;;;;;;;;;;;;;;;20.82;25.93;96341.81;10401475;28;1974;-65
2021/12/22 06:12:15;;;;;;;;;;;;;;;20.82;25.62;96337.34;10399207;28;2017;-62
2021/12/22 06:17:16;;;;;;;;;;;;;;;20.78;25.58;96338.94;10406903;28;2007;-60
2021/12/22 06:22:16;;;;;;;;;;;;;;;20.76;25.88;96337.59;10402686;28;2304;-65
2021/12/22 06:27:17;;;;;;;;;;;;;;;20.77;26.01;96341.81;10396353;28;3406;-64
2021/12/22 06:32:17;;;;;;;;;;;;;;;20.78;26.17;96338.94;10394088;28;2619;-65
2021/12/22 06:37:17;;;;;;;;;;;;;;;20.77;26.35;96341.81;10394603;28;1954;-66
2021/12/22 06:42:18;;;;;;;;;;;;;;;20.78;26.35;96331.03;10397654;28;1938;-66
2021/12/22 06:47:18;;;;;;;;;;;;;;;20.79;26.42;96343.13;10389363;28;2345;-65
2021/12/22 06:52:19;;;;;;;;;;;;;;;20.81;26.12;96345.53;10391469;28;1983;-64
2021/12/22 06:57:21;;;;;;;;;;;;;;;20.79;26.06;96348.41;10404675;28;1981;-65
2021/12/22 07:02:24;;;;;;;;;;;;;;;20.78;26.02;96344.19;10409395;28;2374;-65
2021/12/22 07:07:24;;;;;;;;;;;;;;;20.78;26.37;96344.19;10393794;28;2084;-64
2021/12/22 07:12:24;;;;;;;;;;;;;;;20.80;25.97;96344.72;10399595;28;1906;-66
2021/12/22 07:17:25;;;;;;;;;;;;;;;20.77;26.35;96345.22;10412566;28;1977;-65
2021/12/22 07:22:25;;;;;;;;;;;;;;;20.77;26.22;96345.22;10408053;28;1963;-64
2021/12/22 07:27:25;;;;;;;;;;;;;;;20.76;26.20;96342.88;10404506;28;2027;-66
2021/12/22 07:32:26;;;;;;;;;;;;;;;20.79;26.12;96352.91;10413842;28;1965;-65
2021/12/22 07:37:41;;;;;;;;;;;;;;;20.76;25.94;96354.19;10418086;28;1958;-63
2021/12/22 07:42:42;;;;;;;;;;;;;;;20.77;25.87;96355.00;10402237;28;2091;-64
2021/12/22 07:47:42;;;;;;;;;;;;;;;20.76;25.87;96343.66;10413987;28;2006;-63
2021/12/22 07:52:43;;;;;;;;;;;;;;;20.75;25.88;96349.19;10409593;28;2054;-64
2021/12/22 07:57:43;;;;;;;;;;;;;;;20.74;25.96;96356.31;10405272;28;2037;-64
2021/12/22 08:02:44;;;;;;;;;;;;;;;20.74;25.89;96343.13;10407122;28;1907;-64
2021/12/22 08:07:44;;;;;;;;;;;;;;;20.73;26.05;96349.44;10412753;28;2039;-66
2021/12/22 08:12:44;;;;;;;;;;;;;;;20.75;26.04;96362.38;10401222;28;2002;-65
2021/12/22 08:17:45;;;;;;;;;;;;;;;20.74;26.13;96361.56;10405189;28;1986;-65
2021/12/22 08:22:45;;;;;;;;;;;;;;;20.74;26.00;96360.78;10398966;28;2270;-64
2021/12/22 08:27:46;;;;;;;;;;;;;;;20.76;25.72;96369.22;10406238;28;1955;-66
2021/12/22 08:32:46;;;;;;;;;;;;;;;20.74;26.07;96369.47;10404165;28;1990;-64
2021/12/22 08:43:06;;;;;;;;;;;;;;;20.73;25.84;96373.16;10393017;28;1794;-64
2021/12/22 08:48:07;;;;;;;;;;;;;;;20.75;26.01;96372.91;10399893;28;2013;-63
2021/12/22 08:53:07;;;;;;;;;;;;;;;20.72;26.03;96376.84;10411360;28;1977;-63
2021/12/22 08:58:07;;;;;;;;;;;;;;;20.73;26.03;96386.31;10399021;28;1959;-65
2021/12/22 09:03:08;;;;;;;;;;;;;;;20.73;25.90;96378.41;10410058;28;1982;-65
2021/12/22 09:08:08;;;;;;;;;;;;;;;20.74;25.83;96377.38;10409415;28;1828;-65
2021/12/22 09:13:09;;;;;;;;;;;;;;;20.73;25.89;96388.94;10402564;28;1933;-65
2021/12/22 09:18:09;;;;;;;;;;;;;;;20.71;25.87;96396.31;10419415;23;1934;-73
2021/12/22 09:23:09;;;;;;;;;;;;;;;20.74;25.88;96387.13;10400064;28;3147;-74
2021/12/22 09:28:12;;;;;;;;;;;;;;;20.70;26.02;96396.59;10408174;28;2540;-74
2021/12/22 09:33:16;;;;;;;;;;;;;;;20.72;26.02;96411.09;10404822;28;1902;-74
2021/12/22 09:38:18;;;;;;;;;;;;;;;20.71;26.01;96398.97;10411563;28;2722;-73
2021/12/22 09:43:18;;;;;;;;;;;;;;;20.71;25.81;96401.59;10396275;28;1881;-72
2021/12/22 09:48:36;;;;;;;;;;;;;;;20.69;25.98;96397.66;10422353;28;1957;-72
2021/12/22 09:53:39;;;;;;;;;;;;;;;20.70;25.77;96397.41;10390781;28;1854;-72
2021/12/22 09:58:39;;;;;;;;;;;;;;;20.70;25.91;96391.31;10390097;28;2306;-72
2021/12/22 10:03:40;;;;;;;;;;;;;;;20.69;25.85;96387.88;10403387;28;1864;-72
2021/12/22 10:08:49;;;;;;;;;;;;;;;20.68;25.98;96388.94;10405734;28;2038;-72
2021/12/22 10:13:50;;;;;;;;;;;;;;;20.68;26.00;96388.16;10391274;28;1892;-72
2021/12/22 10:19:10;;;;;;;;;;;;;;;20.69;25.81;96379.22;10401566;28;1983;-73
2021/12/22 10:24:11;;;;;;;;;;;;;;;20.69;25.85;96366.03;10401455;28;1887;-73
2021/12/22 10:29:11;;;;;;;;;;;;;;;20.66;25.83;96356.81;10413318;28;1895;-72
2021/12/22 10:34:12;;;;;;;;;;;;;;;20.67;25.84;96350.47;10398388;28;1888;-72
2021/12/22 10:39:27;;;;;;;;;;;;;;;20.64;25.97;96334.41;10404938;28;1979;-73
2021/12/22 10:44:38;;;;;;;;;;;;;;;20.68;25.70;96327.56;10380758;28;1826;-73
2021/12/22 10:49:38;;;;;;;;;;;;;;;20.68;25.70;96323.09;10404347;28;2018;-73
2021/12/22 10:54:39;;;;;;;;;;;;;;;20.70;25.58;96321.00;10412833;28;1805;-72
2021/12/22 10:59:45;;;;;;;;;;;;;;;20.69;25.71;96308.84;10404845;28;1914;-72
2021/12/22 11:04:45;;;;;;;;;;;;;;;20.68;25.87;96309.94;10429511;28;1792;-72
2021/12/22 11:09:46;;;;;;;;;;;;;;;20.67;25.77;96310.97;10408216;28;1878;-72
2021/12/22 11:14:47;;;;;;;;;;;;;;;20.65;25.89;96307.78;10404125;28;1817;-72
2021/12/22 11:19:53;;;;;;;;;;;;;;;20.68;25.74;96304.66;10393941;28;2073;-72
2021/12/22 11:24:54;;;;;;;;;;;;;;;20.69;25.81;96289.66;10399423;28;1928;-72
2021/12/22 11:29:55;;;;;;;;;;;;;;;20.69;25.97;96279.88;10393688;28;1864;-73
2021/12/22 11:34:56;;;;;;;;;;;;;;;20.69;25.73;96274.63;10391345;28;1884;-71
2021/12/22 11:39:57;;;;;;;;;;;;;;;20.68;25.90;96267.78;10409931;28;1981;-73
2021/12/22 11:45:08;;;;;;;;;;;;;;;20.68;25.96;96264.34;10405209;28;1829;-72
2021/12/22 11:50:13;;;;;;;;;;;;;;;20.73;25.90;96264.38;10413745;28;2099;-72
2021/12/22 11:55:15;;;;;;;;;;;;;;;20.77;25.82;96260.16;10411416;28;2002;-72
2021/12/22 12:00:34;;;;;;;;;;;;;;;20.79;25.82;96258.03;10408077;28;2143;-72
2021/12/22 12:05:34;;;;;;;;;;;;;;;20.77;26.00;96253.00;10409701;28;1882;-72
2021/12/22 12:10:42;;;;;;;;;;;;;;;20.77;25.91;96249.63;10402080;28;1794;-73
2021/12/22 12:21:38;;;;;;;;;;;;;;;20.72;26.03;96236.44;10408850;28;3300;-73
2021/12/22 12:21:41;;;;;;;;;;;;;;;20.73;25.74;96222.97;10398939;28;1921;-73
2021/12/22 12:26:43;;;;;;;;;;;;;;;20.76;25.67;96225.09;10416642;28;1990;-73
2021/12/22 12:31:44;;;;;;;;;;;;;;;20.79;25.78;96218.53;10414390;28;2039;-73
2021/12/22 12:36:44;;;;;;;;;;;;;;;20.80;25.71;96209.56;10418549;28;1849;-72
2021/12/22 12:42:00;;;;;;;;;;;;;;;20.80;25.74;96214.81;10396413;28;1906;-71
2021/12/22 12:47:00;;;;;;;;;;;;;;;20.83;25.91;96220.38;10447630;23;1874;-51
2021/12/22 12:52:06;;;;;;;;;;;;;;;20.84;25.99;96208.75;10408424;28;1845;-52
2021/12/22 12:57:12;;;;;;;;;;;;;;;20.85;25.76;96204.28;10391410;28;2139;-49
2021/12/22 13:02:19;;;;;;;;;;;;;;;20.85;25.91;96207.72;10405250;28;1841;-50
2021/12/22 13:07:20;;;;;;;;;;;;;;;20.82;26.00;96202.97;10410134;28;1934;-49
2021/12/22 13:17:25;;;;;;;;;;;;;;;20.83;26.07;96196.66;10395530;28;3220;-49
2021/12/22 13:22:27;;;;;;;;;;;;;;;20.84;26.17;96198.22;10400454;28;2544;-51
2021/12/22 13:27:29;;;;;;;;;;;;;;;20.88;25.97;96183.47;10409350;28;1890;-50
2021/12/22 13:32:29;;;;;;;;;;;;;;;20.88;26.31;96190.56;10401975;28;2638;-50
2021/12/22 13:37:30;;;;;;;;;;;;;;;20.90;26.10;96186.63;10387898;28;1957;-49
2021/12/22 13:42:37;;;;;;;;;;;;;;;20.85;25.89;96191.13;10400424;28;1814;-49
2021/12/22 13:47:37;;;;;;;;;;;;;;;20.84;26.14;96179.78;10391360;28;1865;-51
2021/12/22 13:52:37;;;;;;;;;;;;;;;20.85;26.05;96181.38;10404665;28;1900;-51
2021/12/22 13:57:38;;;;;;;;;;;;;;;20.87;26.05;96189.00;10406186;28;1971;-47
2021/12/22 14:02:39;;;;;;;;;;;;;;;20.82;26.06;96181.88;10393368;28;1813;-49
2021/12/22 14:07:40;;;;;;;;;;;;;;;20.80;26.30;96178.72;10398131;28;1859;-49
2021/12/22 14:12:42;;;;;;;;;;;;;;;20.76;26.44;96175.03;10394884;28;1886;-50
2021/12/22 14:17:46;;;;;;;;;;;;;;;20.82;26.12;96181.09;10401610;28;1976;-50
2021/12/22 14:23:02;;;;;;;;;;;;;;;20.82;26.13;96179.25;10409529;28;1972;-48
2021/12/22 14:28:13;;;;;;;;;;;;;;;20.80;25.91;96176.09;10412854;28;1965;-52
2021/12/22 14:33:14;;;;;;;;;;;;;;;20.80;26.00;96181.38;10422172;28;2124;-51
2021/12/22 14:38:18;;;;;;;;;;;;;;;20.79;25.81;96192.94;10419685;28;2030;-51
2021/12/22 14:43:19;;;;;;;;;;;;;;;20.75;26.04;96186.63;10413790;28;1899;-49
2021/12/22 14:48:23;;;;;;;;;;;;;;;20.80;25.94;96181.38;10417884;28;1880;-51
2021/12/22 14:53:31;;;;;;;;;;;;;;;20.76;25.97;96172.41;10412775;28;2091;-52
2021/12/22 14:58:31;;;;;;;;;;;;;;;20.76;26.00;96169.78;10416297;28;2030;-46
2021/12/22 15:03:32;;;;;;;;;;;;;;;20.72;25.86;96166.09;10418802;28;1847;-47
2021/12/22 15:08:32;;;;;;;;;;;;;;;20.75;25.60;96170.81;10418088;28;1831;-45
2021/12/22 15:13:33;;;;;;;;;;;;;;;20.75;25.78;96162.91;10406866;28;2112;-48
2021/12/22 15:18:33;;;;;;;;;;;;;;;20.71;25.84;96166.38;10428684;28;1910;-48
2021/12/22 15:23:34;;;;;;;;;;;;;;;20.76;25.66;96168.97;10419614;28;1918;-52
2021/12/22 15:28:34;;;;;;;;;;;;;;;20.78;25.78;96178.22;10432505;23;3565;-61
2021/12/22 15:33:34;;;;;;;;;;;;;;;20.76;25.75;96180.31;10412195;28;1882;-62
2021/12/22 15:38:35;;;;;;;;;;;;;;;20.77;25.60;96178.47;10413957;28;2206;-62
2021/12/22 15:43:35;;;;;;;;;;;;;;;20.74;25.76;96181.63;10403755;28;1898;-62
2021/12/22 15:48:36;;;;;;;;;;;;;;;20.75;25.72;96180.59;10411090;28;1839;-60
2021/12/22 15:53:36;;;;;;;;;;;;;;;20.77;25.40;96179.25;10397524;28;1941;-59
2021/12/22 15:58:37;;;;;;;;;;;;;;;20.73;25.75;96175.56;10394453;28;1977;-61
2021/12/22 16:03:37;;;;;;;;;;;;;;;20.76;25.89;96182.94;10399478;28;1986;-60
2021/12/22 16:08:38;;;;;;;;;;;;;;;20.77;25.99;96175.84;10403741;28;1828;-61
2021/12/22 16:13:38;;;;;;;;;;;;;;;20.81;26.15;96182.16;10396592;28;1784;-61
2021/12/22 16:18:39;;;;;;;;;;;;;;;20.79;26.22;96181.63;10393234;28;3387;-61
2021/12/22 16:23:39;;;;;;;;;;;;;;;20.77;26.24;96175.84;10399682;28;1826;-61
2021/12/22 16:28:39;;;;;;;;;;;;;;;20.77;26.10;96168.72;10397225;28;1829;-61
2021/12/22 16:33:40;;;;;;;;;;;;;;;20.77;26.03;96171.34;10393845;28;2017;-62
2021/12/22 16:38:41;;;;;;;;;;;;;;;20.74;26.07;96160.56;10395314;28;1953;-61
2021/12/22 16:43:41;;;;;;;;;;;;;;;20.76;26.13;96158.44;10395280;28;1972;-61
2021/12/22 16:48:41;;;;;;;;;;;;;;;20.74;25.82;96155.28;10402346;28;1903;-60
2021/12/22 16:53:44;;;;;;;;;;;;;;;20.75;26.03;96147.09;10408478;28;1889;-59
2021/12/22 16:58:45;;;;;;;;;;;;;;;20.74;25.72;96148.19;10411568;28;1965;-59
2021/12/22 17:03:45;;;;;;;;;;;;;;;20.75;26.07;96147.09;10401691;28;1832;-61
2021/12/22 17:08:48;;;;;;;;;;;;;;;20.72;26.02;96139.75;10416607;28;1906;-61
2021/12/22 17:13:49;;;;;;;;;;;;;;;20.73;25.90;96128.13;10401239;28;2141;-60
2021/12/22 17:18:49;;;;;;;;;;;;;;;20.69;25.58;96137.63;10399663;28;3325;-61
2021/12/22 17:23:50;;;;;;;;;;;;;;;20.70;25.90;96130.53;10397906;28;2690;-62
2021/12/22 17:28:50;;;;;;;;;;;;;;;20.69;25.85;96121.06;10395216;28;1839;-61
2021/12/22 17:33:51;;;;;;;;;;;;;;;20.71;25.56;96119.72;10392586;28;2191;-61
2021/12/22 17:38:51;;;;;;;;;;;;;;;20.73;25.59;96122.88;10394775;28;2609;-61
2021/12/22 17:43:51;;;;;;;;;;;;;;;20.74;25.65;96124.47;10400905;28;1846;-62
2021/12/22 17:48:52;;;;;;;;;;;;;;;20.69;25.49;96128.97;10403865;28;1929;-63
2021/12/22 17:53:52;;;;;;;;;;;;;;;20.67;25.67;96123.94;10414673;28;1881;-60
2021/12/22 17:58:54;;;;;;;;;;;;;;;20.71;25.56;96118.94;10399436;28;1935;-62
2021/12/22 18:03:57;;;;;;;;;;;;;;;20.71;25.58;96114.44;10399422;28;1827;-61
2021/12/22 18:08:58;;;;;;;;;;;;;;;20.70;25.50;96112.09;10413837;28;1838;-61
2021/12/22 18:13:59;;;;;;;;;;;;;;;20.69;25.54;96110.53;10407997;28;1892;-62
2021/12/22 18:18:59;;;;;;;;;;;;;;;20.70;25.26;96117.34;10383913;28;1968;-61
2021/12/22 18:23:59;;;;;;;;;;;;;;;20.68;25.49;96117.63;10400352;28;2000;-61
2021/12/22 18:29:00;;;;;;;;;;;;;;;20.68;25.41;96114.19;10399957;28;2202;-62
2021/12/22 18:34:01;;;;;;;;;;;;;;;20.68;25.50;96104.44;10404747;28;1814;-61
2021/12/22 18:39:04;;;;;;;;;;;;;;;20.67;25.47;96097.59;10406369;28;1906;-60
2021/12/22 18:44:05;;;;;;;;;;;;;;;20.68;25.39;96091.28;10403504;28;1816;-61
2021/12/22 18:49:05;;;;;;;;;;;;;;;20.69;25.35;96095.47;10401694;28;1842;-62
2021/12/22 18:54:06;;;;;;;;;;;;;;;20.65;25.40;96099.69;10410337;28;1850;-61
2021/12/22 18:59:06;;;;;;;;;;;;;;;20.66;25.27;96084.69;10393183;28;1902;-61
2021/12/22 19:04:07;;;;;;;;;;;;;;;20.66;25.35;96074.97;10399068;28;1882;-62
2021/12/22 19:09:07;;;;;;;;;;;;;;;20.68;25.26;96070.22;10403185;28;1785;-61
2021/12/22 19:14:08;;;;;;;;;;;;;;;20.67;25.35;96059.94;10411741;28;1832;-62
2021/12/22 19:19:08;;;;;;;;;;;;;;;20.66;25.42;96061.78;10402307;28;1984;-60
2021/12/22 19:24:08;;;;;;;;;;;;;;;20.66;25.33;96060.97;10405185;28;1775;-61
2021/12/22 19:29:09;;;;;;;;;;;;;;;20.67;25.18;96055.44;10403394;28;1876;-61
2021/12/22 19:34:09;;;;;;;;;;;;;;;20.66;25.08;96043.34;10406693;28;2020;-62
2021/12/22 19:39:09;;;;;;;;;;;;;;;20.65;25.12;96038.34;10408907;28;1984;-60
2021/12/22 19:44:14;;;;;;;;;;;;;;;20.66;25.30;96038.06;10414040;28;1872;-62
2021/12/22 19:49:14;;;;;;;;;;;;;;;20.64;24.95;96040.19;10398420;28;2176;-60
2021/12/22 19:54:15;;;;;;;;;;;;;;;20.63;25.07;96038.59;10419502;28;1879;-61
2021/12/22 19:59:15;;;;;;;;;;;;;;;20.64;25.15;96042.81;10403503;28;2043;-59
2021/12/22 20:04:16;;;;;;;;;;;;;;;20.62;24.93;96029.13;10410678;28;1809;-61
2021/12/22 20:09:16;;;;;;;;;;;;;;;20.63;25.13;96028.06;10404157;28;1828;-61
2021/12/22 20:14:17;;;;;;;;;;;;;;;20.64;25.05;96039.38;10402134;28;1914;-61
2021/12/22 20:19:17;;;;;;;;;;;;;;;20.65;24.98;96031.22;10380863;28;3207;-62
2021/12/22 20:24:18;;;;;;;;;;;;;;;20.64;24.95;96020.97;10394105;28;2121;-61
2021/12/22 20:29:18;;;;;;;;;;;;;;;20.62;24.96;96020.44;10408869;28;1849;-61
2021/12/22 20:34:18;;;;;;;;;;;;;;;20.61;24.88;96014.38;10399905;28;1857;-61
2021/12/22 20:39:19;;;;;;;;;;;;;;;20.60;25.23;96015.44;10399545;28;2063;-61
2021/12/22 20:44:20;;;;;;;;;;;;;;;20.62;25.31;96026.50;10397835;28;2002;-61
2021/12/22 20:49:20;;;;;;;;;;;;;;;20.63;24.99;96022.03;10395795;28;1952;-61
2021/12/22 20:54:20;;;;;;;;;;;;;;;20.60;24.82;96007.53;10407009;28;1839;-62
2021/12/22 20:59:21;;;;;;;;;;;;;;;20.59;25.24;96002.50;10400605;28;2114;-61
2021/12/22 21:04:21;;;;;;;;;;;;;;;20.58;24.65;95993.06;10414276;28;1868;-62
2021/12/22 21:09:22;;;;;;;;;;;;;;;20.58;25.13;95978.03;10404467;28;1837;-60
2021/12/22 21:14:22;;;;;;;;;;;;;;;20.57;25.10;95976.44;10400798;28;1876;-61
2021/12/22 21:19:23;;;;;;;;;;;;;;;20.56;25.07;95982.78;10394004;28;3421;-61
2021/12/22 21:24:23;;;;;;;;;;;;;;;20.62;25.23;95973.81;10396234;28;2587;-62
2021/12/22 21:29:24;;;;;;;;;;;;;;;20.57;24.56;95965.13;10415450;23;2312;-50
2021/12/22 21:34:24;;;;;;;;;;;;;;;20.56;25.12;95961.72;10428124;28;2653;-49
2021/12/22 21:39:24;;;;;;;;;;;;;;;20.58;25.15;95951.72;10429850;28;1973;-46
2021/12/22 21:44:25;;;;;;;;;;;;;;;20.57;24.82;95955.38;10388791;28;1818;-46
2021/12/22 21:49:25;;;;;;;;;;;;;;;20.61;25.46;95951.16;10397677;28;1758;-46
2021/12/22 21:54:26;;;;;;;;;;;;;;;20.65;25.53;95959.34;10396530;28;1806;-46
2021/12/22 21:59:26;;;;;;;;;;;;;;;20.65;25.44;95952.19;10399972;28;1969;-48
2021/12/22 22:04:26;;;;;;;;;;;;;;;20.67;25.69;95955.34;10395649;28;1866;-46
2021/12/22 22:09:27;;;;;;;;;;;;;;;20.64;25.55;95944.56;10395973;28;1807;-52
2021/12/22 22:14:27;;;;;;;;;;;;;;;20.64;25.42;95945.38;10392503;28;1747;-49
2021/12/22 22:19:28;;;;;;;;;;;;;;;20.65;25.64;95944.28;10389751;28;2156;-48
2021/12/22 22:24:28;;;;;;;;;;;;;;;20.69;25.61;95947.19;10393125;28;1868;-49
2021/12/22 22:29:29;;;;;;;;;;;;;;;20.68;25.49;95943.78;10392093;28;1902;-46
2021/12/22 22:34:29;;;;;;;;;;;;;;;20.67;25.21;95934.28;10395233;28;2240;-50
2021/12/22 22:39:30;;;;;;;;;;;;;;;20.68;25.40;95927.16;10388942;28;1996;-46
2021/12/22 22:44:30;;;;;;;;;;;;;;;20.70;25.22;95933.75;10395168;28;1868;-50
2021/12/22 22:49:31;;;;;;;;;;;;;;;20.70;25.45;95938.22;10395261;28;1922;-50
2021/12/22 22:54:31;;;;;;;;;;;;;;;20.69;25.49;95937.44;10405136;28;1873;-48
2021/12/22 22:59:32;;;;;;;;;;;;;;;20.65;25.38;95925.84;10404255;28;1971;-49
2021/12/22 23:04:32;;;;;;;;;;;;;;;20.68;25.45;95929.81;10397011;28;2606;-48
2021/12/22 23:09:33;;;;;;;;;;;;;;;20.67;25.36;95923.75;10387218;28;1892;-46
2021/12/22 23:14:34;;;;;;;;;;;;;;;20.67;25.30;95929.00;10407300;28;1806;-46
2021/12/22 23:19:34;;;;;;;;;;;;;;;20.69;25.29;95926.88;10413266;28;1965;-49
2021/12/22 23:24:34;;;;;;;;;;;;;;;20.67;25.35;95936.91;10418561;28;1805;-48
2021/12/22 23:29:35;;;;;;;;;;;;;;;20.68;25.35;95929.81;10412486;28;1877;-47
2021/12/22 23:34:37;;;;;;;;;;;;;;;20.66;25.39;95930.09;10400506;28;1946;-49
2021/12/22 23:39:53;;;;;;;;;;;;;;;20.67;25.39;95923.75;10404160;28;1961;-48
2021/12/22 23:50:03;;;;;;;;;;;;;;;20.69;25.27;95919.00;10404398;28;1732;-48
2021/12/22 23:55:04;;;;;;;;;;;;;;;20.66;25.14;95903.75;10401721;28;1748;-48
